Time;durP1;ratioP1;P1;durP2;ratioP2;P2;SDS_P1;SDS_P2;PMS_P1;PMS_P2;Temp;Humidity;BMP_temperature;BMP_pressure;BME280_temperature;BME280_humidity;BME280_pressure;Samples;Min_cycle;Max_cycle;Signal;HPM_P1;HPM_P2
2021/01/28 05:47:00;;;;;;;9.65;6.80;;;;;;;;;;6220052;22;884231;-83
2021/01/28 05:49:25;;;;;;;9.15;5.75;;;;;;;;;;6280350;22;20092;-83
2021/01/28 05:51:52;;;;;;;9.80;5.95;;;;;;;;;;6280042;22;20420;-82
2021/01/28 05:54:19;;;;;;;10.30;4.70;;;;;;;;;;6280109;22;20004;-82
2021/01/28 05:56:51;;;;;;;6.90;4.68;;;;;;;;;;6259443;22;19999;-82
2021/01/28 05:59:16;;;;;;;;;;;;;;;;;;6250272;22;19999;-82
2021/01/28 06:01:49;;;;;;;5.93;3.75;;;;;;;;;;6248970;22;19903;-84
2021/01/28 06:04:37;;;;;;;7.90;4.60;;;;;;;;;;6248279;22;20037;-83
2021/01/28 06:07:29;;;;;;;6.93;4.57;;;;;;;;;;6276370;22;20007;-82
2021/01/28 06:09:54;;;;;;;;;;;;;;;;;;6275791;22;20434;-82
2021/01/28 06:12:20;;;;;;;7.72;4.60;;;;;;;;;;6281458;22;19913;-82
2021/01/28 06:14:55;;;;;;;6.93;4.03;;;;;;;;;;6279875;22;20597;-82
2021/01/28 06:17:20;;;;;;;7.28;4.05;;;;;;;;;;6253643;22;20446;-82
2021/01/28 06:20:01;;;;;;;7.10;4.55;;;;;;;;;;6281462;22;20000;-82
2021/01/28 06:22:33;;;;;;;8.77;5.25;;;;;;;;;;6281441;22;20003;-82
2021/01/28 06:25:01;;;;;;;9.18;6.05;;;;;;;;;;6281339;22;20062;-81
2021/01/28 06:27:35;;;;;;;8.68;5.57;;;;;;;;;;6281508;22;20341;-81
2021/01/28 06:30:22;;;;;;;11.55;7.18;;;;;;;;;;6281642;22;20058;-81
2021/01/28 06:32:48;;;;;;;9.88;6.20;;;;;;;;;;6280248;22;20008;-81
2021/01/28 06:35:14;;;;;;;9.45;6.07;;;;;;;;;;6281238;22;20000;-82
2021/01/28 06:37:52;;;;;;;9.48;6.32;;;;;;;;;;6254401;22;20012;-82
2021/01/28 06:40:20;;;;;;;9.30;5.97;;;;;;;;;;6255306;22;20004;-81
2021/01/28 06:42:53;;;;;;;7.90;5.18;;;;;;;;;;6281515;22;20008;-81
2021/01/28 06:45:20;;;;;;;7.70;4.38;;;;;;;;;;6280843;22;20003;-81
2021/01/28 06:47:56;;;;;;;6.75;3.95;;;;;;;;;;6276852;22;20311;-83
2021/01/28 06:50:41;;;;;;;6.70;3.75;;;;;;;;;;6248481;22;20007;-83
2021/01/28 06:53:30;;;;;;;6.00;3.65;;;;;;;;;;6248741;22;20071;-83
2021/01/28 06:56:02;;;;;;;5.57;3.60;;;;;;;;;;6234256;22;20078;-83
2021/01/28 06:58:47;;;;;;;6.82;4.10;;;;;;;;;;6251308;22;20026;-83
2021/01/28 07:01:25;;;;;;;6.57;4.40;;;;;;;;;;6250808;22;20039;-82
2021/01/28 07:03:57;;;;;;;6.40;3.80;;;;;;;;;;6250390;22;20090;-82
2021/01/28 07:06:28;;;;;;;6.03;3.78;;;;;;;;;;6250551;22;20350;-83
2021/01/28 07:11:23;;;;;;;5.68;3.67;;;;;;;;;;5063124;28;25163;-83
2021/01/28 07:13:48;;;;;;;6.28;3.67;;;;;;;;;;5045451;28;20481;-84
2021/01/28 07:16:19;;;;;;;6.65;3.53;;;;;;;;;;5044498;28;20037;-83
2021/01/28 07:18:48;;;;;;;5.30;3.08;;;;;;;;;;5026670;28;20014;-82
2021/01/28 07:21:27;;;;;;;5.13;3.10;;;;;;;;;;5026491;28;20060;-82
2021/01/28 07:24:10;;;;;;;7.45;3.85;;;;;;;;;;5033656;28;20091;-83
2021/01/28 07:26:46;;;;;;;6.43;3.80;;;;;;;;;;5027581;28;20072;-82
2021/01/28 07:29:31;;;;;;;7.05;3.85;;;;;;;;;;5029262;28;20022;-82
2021/01/28 07:32:08;;;;;;;10.77;5.22;;;;;;;;;;5034106;28;20105;-82
2021/01/28 07:34:33;;;;;;;8.25;4.43;;;;;;;;;;5032582;28;20017;-83
2021/01/28 07:37:25;;;;;;;5.40;3.40;;;;;;;;;;5032148;28;20793;-82
2021/01/28 07:39:51;;;;;;;;;;;;;;;;;;5030122;28;20033;-83
2021/01/28 07:42:16;;;;;;;8.80;4.78;;;;;;;;;;5030610;28;19913;-84
2021/01/28 07:44:47;;;;;;;9.95;5.47;;;;;;;;;;5026698;28;20060;-83
2021/01/28 07:47:14;;;;;;;11.02;5.32;;;;;;;;;;5027479;28;20033;-83
2021/01/28 07:50:00;;;;;;;7.85;4.50;;;;;;;;;;5031294;28;20022;-83
2021/01/28 07:52:30;;;;;;;6.63;4.10;;;;;;;;;;5037237;28;20029;-83
2021/01/28 07:54:56;;;;;;;7.40;4.32;;;;;;;;;;5030964;28;20034;-83
2021/01/28 07:57:27;;;;;;;7.53;4.80;;;;;;;;;;5028730;28;20061;-84
2021/01/28 07:59:55;;;;;;;6.78;4.15;;;;;;;;;;5030693;28;20540;-83
2021/01/28 08:02:24;;;;;;;6.03;3.47;;;;;;;;;;5035907;28;20084;-83
2021/01/28 08:05:06;;;;;;;8.73;3.53;;;;;;;;;;5037525;28;20022;-84
2021/01/28 08:07:34;;;;;;;5.55;3.63;;;;;;;;;;5032915;28;20068;-85
2021/01/28 08:10:07;;;;;;;5.43;3.38;;;;;;;;;;5032702;28;20036;-83
2021/01/28 08:12:38;;;;;;;7.32;3.95;;;;;;;;;;5052437;28;20022;-83
2021/01/28 08:15:25;;;;;;;8.15;5.25;;;;;;;;;;5028202;28;20559;-84
2021/01/28 08:18:09;;;;;;;17.15;9.27;;;;;;;;;;5028457;28;20104;-83
2021/01/28 08:20:35;;;;;;;60.30;31.00;;;;;;;;;;5043081;28;20060;-83
2021/01/28 08:23:06;;;;;;;54.08;29.20;;;;;;;;;;5032282;28;20038;-83
2021/01/28 08:25:35;;;;;;;42.65;24.67;;;;;;;;;;5022837;28;20035;-83
2021/01/28 08:28:14;;;;;;;57.25;28.67;;;;;;;;;;5013321;28;20445;-84
2021/01/28 08:30:40;;;;;;;50.40;28.92;;;;;;;;;;5022870;28;20025;-83
2021/01/28 08:33:06;;;;;;;50.95;27.50;;;;;;;;;;5023097;28;20374;-83
2021/01/28 08:35:37;;;;;;;51.20;28.50;;;;;;;;;;5021116;28;20021;-83
2021/01/28 08:38:15;;;;;;;40.90;24.63;;;;;;;;;;5018074;28;20053;-83
2021/01/28 08:40:41;;;;;;;45.42;25.27;;;;;;;;;;5013905;28;20401;-82
2021/01/28 08:43:15;;;;;;;44.53;25.50;;;;;;;;;;5025949;28;20025;-83
2021/01/28 08:45:41;;;;;;;28.10;16.17;;;;;;;;;;5018287;28;20600;-82
2021/01/28 08:48:10;;;;;;;18.58;11.57;;;;;;;;;;5013554;28;20026;-84
2021/01/28 08:50:36;;;;;;;35.20;19.15;;;;;;;;;;5016127;28;20018;-83
2021/01/28 08:53:04;;;;;;;33.80;18.98;;;;;;;;;;5016650;28;20084;-84
2021/01/28 08:55:32;;;;;;;19.60;12.48;;;;;;;;;;5015894;28;20061;-83
2021/01/28 08:58:06;;;;;;;20.15;10.80;;;;;;;;;;5021237;28;20025;-84
2021/01/28 09:00:32;;;;;;;21.42;13.60;;;;;;;;;;5012880;28;20030;-83
2021/01/28 09:03:00;;;;;;;19.13;11.50;;;;;;;;;;5017890;28;20030;-83
2021/01/28 09:05:27;;;;;;;14.73;9.02;;;;;;;;;;5015698;28;20443;-82
2021/01/28 09:07:58;;;;;;;12.15;6.60;;;;;;;;;;5018342;28;20505;-83
2021/01/28 09:10:23;;;;;;;7.10;4.75;;;;;;;;;;5015661;28;20481;-84
2021/01/28 09:12:49;;;;;;;6.57;4.18;;;;;;;;;;5023961;28;20026;-82
2021/01/28 09:15:14;;;;;;;5.45;3.17;;;;;;;;;;5026646;28;20114;-83
2021/01/28 09:17:41;;;;;;;6.57;3.22;;;;;;;;;;5023670;28;20065;-83
2021/01/28 09:20:07;;;;;;;5.63;2.88;;;;;;;;;;5015111;28;20101;-82
2021/01/28 09:22:35;;;;;;;5.35;2.90;;;;;;;;;;5019650;28;20501;-83
2021/01/28 09:25:01;;;;;;;5.15;3.15;;;;;;;;;;5019443;28;20028;-83
2021/01/28 09:27:32;;;;;;;5.28;3.30;;;;;;;;;;5014327;28;20033;-83
2021/01/28 09:30:08;;;;;;;11.43;5.28;;;;;;;;;;5016748;28;20024;-83
2021/01/28 09:32:35;;;;;;;9.07;5.10;;;;;;;;;;5020095;28;20022;-82
2021/01/28 09:35:04;;;;;;;7.28;4.93;;;;;;;;;;5010951;28;20021;-83
2021/01/28 09:37:29;;;;;;;18.95;10.63;;;;;;;;;;5016414;28;20038;-82
2021/01/28 09:39:55;;;;;;;21.38;12.27;;;;;;;;;;5012514;28;20084;-84
2021/01/28 09:44:47;;;;;;;14.68;7.82;;;;;;;;;;5108284;27;20390;-83
2021/01/28 09:47:13;;;;;;;8.45;5.55;;;;;;;;;;5101137;28;20548;-83
2021/01/28 09:49:39;;;;;;;8.25;5.45;;;;;;;;;;5093150;28;20032;-83
2021/01/28 09:52:05;;;;;;;9.23;6.25;;;;;;;;;;5096436;28;20058;-84
2021/01/28 09:54:34;;;;;;;8.50;5.35;;;;;;;;;;5101594;28;20371;-83
2021/01/28 09:57:01;;;;;;;7.93;4.72;;;;;;;;;;5092930;28;20012;-83
2021/01/28 09:59:26;;;;;;;10.00;5.57;;;;;;;;;;5102175;28;20020;-83
2021/01/28 10:01:52;;;;;;;7.35;4.95;;;;;;;;;;5093772;28;20115;-83
2021/01/28 10:04:18;;;;;;;5.18;3.33;;;;;;;;;;5104320;28;20032;-83
2021/01/28 10:06:43;;;;;;;4.75;2.95;;;;;;;;;;5100115;28;20032;-83
2021/01/28 10:09:09;;;;;;;4.25;2.97;;;;;;;;;;5101096;28;20016;-84
2021/01/28 10:11:36;;;;;;;7.05;3.67;;;;;;;;;;5101532;28;20063;-83
2021/01/28 10:14:01;;;;;;;6.50;3.40;;;;;;;;;;5104998;28;20098;-83
2021/01/28 10:16:27;;;;;;;5.25;2.80;;;;;;;;;;5107839;28;20024;-82
2021/01/28 10:18:54;;;;;;;5.97;3.25;;;;;;;;;;5095877;28;20030;-82
2021/01/28 10:21:19;;;;;;;5.00;2.88;;;;;;;;;;5095761;28;20026;-82
2021/01/28 10:23:45;;;;;;;4.68;2.60;;;;;;;;;;5101873;28;20028;-83
2021/01/28 10:26:11;;;;;;;4.35;2.33;;;;;;;;;;5099558;28;20073;-82
2021/01/28 10:28:36;;;;;;;5.03;3.38;;;;;;;;;;5095662;28;20079;-83
2021/01/28 10:33:24;;;;;;;13.68;7.75;;;;;;;;;;5106489;27;20725;-83
2021/01/28 10:35:50;;;;;;;13.55;8.45;;;;;;;;;;5109642;28;20055;-82
2021/01/28 10:38:15;;;;;;;11.40;7.53;;;;;;;;;;5100199;28;20541;-82
2021/01/28 10:40:41;;;;;;;11.38;7.43;;;;;;;;;;5099104;28;20496;-82
2021/01/28 10:43:09;;;;;;;10.27;7.38;;;;;;;;;;5105231;28;20107;-83
2021/01/28 10:45:36;;;;;;;12.70;7.97;;;;;;;;;;5123270;28;20015;-82
2021/01/28 10:48:03;;;;;;;10.65;6.63;;;;;;;;;;5126853;27;20043;-82
2021/01/28 10:50:29;;;;;;;7.03;4.90;;;;;;;;;;5122097;27;20062;-83
2021/01/28 10:52:55;;;;;;;6.93;4.80;;;;;;;;;;5104247;27;20055;-82
2021/01/28 10:55:21;;;;;;;9.40;4.70;;;;;;;;;;5089468;28;20052;-82
2021/01/28 10:57:47;;;;;;;7.15;5.28;;;;;;;;;;5101266;28;20024;-82
2021/01/28 11:00:13;;;;;;;10.10;5.53;;;;;;;;;;5114331;28;20098;-82
2021/01/28 11:02:39;;;;;;;9.82;6.00;;;;;;;;;;5109906;28;20070;-83
2021/01/28 11:07:22;;;;;;;8.88;6.25;;;;;;;;;;5106204;27;20915;-82
2021/01/28 11:09:48;;;;;;;7.18;5.10;;;;;;;;;;5086614;28;20029;-82
2021/01/28 11:12:14;;;;;;;11.00;7.43;;;;;;;;;;5087028;28;20031;-82
2021/01/28 11:14:39;;;;;;;10.77;7.00;;;;;;;;;;5086708;28;20328;-82
2021/01/28 11:17:05;;;;;;;6.82;4.47;;;;;;;;;;5088877;28;20396;-82
2021/01/28 11:19:31;;;;;;;19.77;14.55;;;;;;;;;;5086760;28;20676;-83
2021/01/28 11:21:56;;;;;;;9.80;6.82;;;;;;;;;;5090662;28;20448;-82
2021/01/28 11:24:22;;;;;;;8.85;6.45;;;;;;;;;;5089301;28;20461;-83
2021/01/28 11:26:48;;;;;;;10.77;9.02;;;;;;;;;;5090350;28;20043;-83
2021/01/28 11:29:13;;;;;;;7.32;5.22;;;;;;;;;;5089538;28;20563;-82
2021/01/28 11:31:39;;;;;;;5.95;4.63;;;;;;;;;;5090543;28;20408;-82
2021/01/28 11:34:05;;;;;;;6.50;3.92;;;;;;;;;;5087131;28;20012;-83
2021/01/28 11:36:31;;;;;;;7.28;4.15;;;;;;;;;;5080117;28;20052;-83
2021/01/28 11:38:56;;;;;;;4.75;2.60;;;;;;;;;;5088937;28;20028;-83
2021/01/28 11:41:22;;;;;;;2.38;1.50;;;;;;;;;;5086728;28;20031;-83
2021/01/28 11:43:48;;;;;;;2.60;1.20;;;;;;;;;;5086245;28;20032;-82
2021/01/28 11:46:13;;;;;;;3.65;2.00;;;;;;;;;;5082355;28;20016;-82
2021/01/28 11:48:39;;;;;;;6.28;3.35;;;;;;;;;;5082300;28;20024;-83
2021/01/28 11:51:05;;;;;;;6.03;3.80;;;;;;;;;;5082311;28;20647;-82
2021/01/28 11:53:30;;;;;;;8.52;3.53;;;;;;;;;;5087275;28;20480;-84
2021/01/28 11:55:56;;;;;;;33.75;15.25;;;;;;;;;;5084254;28;20066;-83
2021/01/28 11:58:22;;;;;;;12.15;6.70;;;;;;;;;;5074410;28;20111;-83
2021/01/28 12:00:48;;;;;;;30.13;17.63;;;;;;;;;;5088367;28;20028;-83
2021/01/28 12:03:14;;;;;;;22.08;11.70;;;;;;;;;;5082229;28;20443;-83
2021/01/28 12:05:39;;;;;;;20.70;11.25;;;;;;;;;;5083542;28;20078;-83
2021/01/28 12:08:05;;;;;;;25.63;13.98;;;;;;;;;;5084161;28;20028;-82
2021/01/28 12:10:31;;;;;;;30.20;16.90;;;;;;;;;;5084983;28;20020;-83
2021/01/28 12:12:57;;;;;;;23.08;13.90;;;;;;;;;;5081386;28;20441;-83
2021/01/28 12:15:23;;;;;;;32.60;20.13;;;;;;;;;;5075957;28;20081;-83
2021/01/28 12:17:50;;;;;;;57.13;33.45;;;;;;;;;;5073520;28;20055;-83
2021/01/28 12:20:17;;;;;;;32.97;21.52;;;;;;;;;;5072153;28;20073;-82
2021/01/28 12:22:42;;;;;;;12.23;7.63;;;;;;;;;;5067202;28;20059;-83
2021/01/28 12:25:08;;;;;;;19.90;11.10;;;;;;;;;;5071313;28;20021;-83
2021/01/28 12:27:34;;;;;;;14.50;9.55;;;;;;;;;;5069052;28;20027;-83
2021/01/28 12:30:00;;;;;;;16.50;9.77;;;;;;;;;;5072533;28;20025;-83
2021/01/28 12:32:41;;;;;;;10.73;7.55;;;;;;;;;;5067864;28;20100;-83
2021/01/28 12:35:08;;;;;;;13.75;9.23;;;;;;;;;;5067694;28;20025;-83
2021/01/28 12:37:33;;;;;;;17.35;11.02;;;;;;;;;;5066508;28;20017;-83
2021/01/28 12:39:59;;;;;;;11.70;7.30;;;;;;;;;;5067495;28;20020;-84
2021/01/28 12:42:26;;;;;;;8.50;5.70;;;;;;;;;;5069325;28;20025;-83
2021/01/28 12:44:52;;;;;;;10.05;6.88;;;;;;;;;;5069178;28;20017;-83
2021/01/28 12:47:18;;;;;;;12.23;8.38;;;;;;;;;;5068571;28;20029;-83
2021/01/28 12:49:44;;;;;;;11.77;5.30;;;;;;;;;;5067809;28;20060;-84
2021/01/28 12:52:10;;;;;;;7.95;4.25;;;;;;;;;;5070064;28;20058;-83
2021/01/28 12:54:36;;;;;;;9.73;4.97;;;;;;;;;;5072983;28;20099;-83
2021/01/28 12:57:01;;;;;;;16.45;8.85;;;;;;;;;;5071807;28;20026;-84
2021/01/28 12:59:27;;;;;;;16.33;10.95;;;;;;;;;;5069646;28;20029;-83
2021/01/28 13:01:53;;;;;;;12.25;7.30;;;;;;;;;;5063749;28;20103;-83
2021/01/28 13:04:18;;;;;;;6.80;4.15;;;;;;;;;;5071020;28;20028;-83
2021/01/28 13:06:44;;;;;;;10.68;5.97;;;;;;;;;;5069613;28;20203;-83
2021/01/28 13:09:09;;;;;;;23.38;11.20;;;;;;;;;;5068737;28;20226;-83
2021/01/28 13:11:35;;;;;;;13.10;7.28;;;;;;;;;;5069313;28;20420;-83
2021/01/28 13:14:01;;;;;;;12.45;6.32;;;;;;;;;;5070769;28;20012;-83
2021/01/28 13:16:27;;;;;;;14.23;6.20;;;;;;;;;;5066111;28;20040;-84
2021/01/28 13:18:52;;;;;;;25.13;9.73;;;;;;;;;;5066915;28;20033;-83
2021/01/28 13:23:37;;;;;;;20.35;7.82;;;;;;;;;;5108042;27;20414;-85
2021/01/28 13:26:04;;;;;;;16.20;6.80;;;;;;;;;;5106657;28;20019;-81
2021/01/28 13:28:29;;;;;;;21.35;9.52;;;;;;;;;;5112008;28;20031;-81
2021/01/28 13:30:55;;;;;;;24.25;10.55;;;;;;;;;;5112884;28;20019;-81
2021/01/28 13:33:21;;;;;;;7.40;3.55;;;;;;;;;;5110380;28;20032;-82
2021/01/28 13:35:47;;;;;;;13.57;7.22;;;;;;;;;;5106397;28;20546;-82
2021/01/28 13:38:14;;;;;;;16.02;6.88;;;;;;;;;;5114125;28;20023;-81
2021/01/28 13:40:40;;;;;;;15.82;6.50;;;;;;;;;;5111800;28;20031;-81
2021/01/28 13:43:06;;;;;;;8.85;3.67;;;;;;;;;;5115807;28;20015;-81
2021/01/28 13:45:31;;;;;;;11.82;6.00;;;;;;;;;;5108524;28;20119;-82
2021/01/28 13:47:58;;;;;;;10.95;4.72;;;;;;;;;;5114511;28;20017;-82
2021/01/28 13:50:25;;;;;;;9.20;4.18;;;;;;;;;;5106080;28;20383;-81
2021/01/28 13:52:51;;;;;;;10.63;5.68;;;;;;;;;;5114238;28;20081;-82
2021/01/28 13:55:17;;;;;;;8.52;3.20;;;;;;;;;;5106867;28;20024;-81
2021/01/28 13:57:42;;;;;;;14.98;5.72;;;;;;;;;;5110127;28;20069;-81
2021/01/28 14:00:09;;;;;;;11.98;4.85;;;;;;;;;;5112188;28;20426;-81
2021/01/28 14:02:35;;;;;;;16.73;6.35;;;;;;;;;;5116039;28;20494;-81
2021/01/28 14:05:00;;;;;;;11.90;6.07;;;;;;;;;;5104906;27;20020;-81
2021/01/28 14:07:26;;;;;;;7.80;4.45;;;;;;;;;;5108260;28;20468;-80
2021/01/28 14:09:52;;;;;;;10.23;4.88;;;;;;;;;;5110081;28;20022;-81
2021/01/28 14:12:18;;;;;;;8.88;5.10;;;;;;;;;;5113503;28;20039;-81
2021/01/28 14:14:43;;;;;;;14.23;7.57;;;;;;;;;;5106220;28;20495;-80
2021/01/28 14:17:09;;;;;;;7.55;4.07;;;;;;;;;;5111208;28;20651;-81
2021/01/28 14:19:35;;;;;;;14.40;8.02;;;;;;;;;;5107857;28;20038;-81
2021/01/28 14:22:00;;;;;;;9.88;5.70;;;;;;;;;;5102940;28;20466;-82
2021/01/28 14:24:26;;;;;;;11.50;6.18;;;;;;;;;;5104793;28;20019;-81
2021/01/28 14:26:52;;;;;;;9.38;4.38;;;;;;;;;;5106769;28;20024;-82
2021/01/28 14:29:18;;;;;;;4.07;2.28;;;;;;;;;;5105587;28;20391;-81
2021/01/28 14:31:43;;;;;;;4.90;2.70;;;;;;;;;;5105079;28;20031;-81
2021/01/28 14:34:09;;;;;;;13.85;5.45;;;;;;;;;;5095922;28;20032;-81
2021/01/28 14:36:35;;;;;;;8.00;4.82;;;;;;;;;;5092864;28;20032;-82
2021/01/28 14:39:00;;;;;;;5.35;1.80;;;;;;;;;;5090134;28;20474;-81
2021/01/28 14:41:27;;;;;;;8.25;4.47;;;;;;;;;;5094416;28;20502;-81
2021/01/28 14:43:52;;;;;;;11.75;5.25;;;;;;;;;;5100014;28;20329;-80
2021/01/28 14:46:18;;;;;;;10.20;3.95;;;;;;;;;;5094132;28;20031;-83
2021/01/28 14:48:44;;;;;;;11.98;6.60;;;;;;;;;;5088991;28;20051;-81
2021/01/28 14:51:10;;;;;;;8.23;3.83;;;;;;;;;;5093300;28;20085;-81
2021/01/28 14:53:35;;;;;;;6.00;3.25;;;;;;;;;;5090007;28;20388;-80
2021/01/28 14:56:04;;;;;;;8.50;3.40;;;;;;;;;;5092668;28;20023;-82
2021/01/28 14:58:30;;;;;;;8.68;3.30;;;;;;;;;;5089417;28;20085;-81
2021/01/28 15:00:56;;;;;;;10.73;4.25;;;;;;;;;;5090848;28;20484;-81
2021/01/28 15:03:22;;;;;;;6.55;3.67;;;;;;;;;;5089968;28;20070;-79
2021/01/28 15:05:47;;;;;;;21.08;10.45;;;;;;;;;;5089989;28;20116;-82
2021/01/28 15:10:32;;;;;;;14.48;5.40;;;;;;;;;;5059856;28;20499;-81
2021/01/28 15:12:58;;;;;;;7.25;3.53;;;;;;;;;;5059437;28;20036;-81
2021/01/28 15:15:24;;;;;;;7.03;3.00;;;;;;;;;;5057500;28;20068;-81
2021/01/28 15:17:49;;;;;;;6.85;2.92;;;;;;;;;;5061635;28;20104;-81
2021/01/28 15:20:17;;;;;;;9.27;3.22;;;;;;;;;;5062495;28;20021;-81
2021/01/28 15:22:43;;;;;;;8.77;3.58;;;;;;;;;;5057400;28;20021;-80
2021/01/28 15:25:09;;;;;;;7.18;1.90;;;;;;;;;;5061678;28;20013;-81
2021/01/28 15:27:35;;;;;;;4.85;1.67;;;;;;;;;;5052717;28;20668;-81
2021/01/28 15:30:01;;;;;;;2.60;1.10;;;;;;;;;;5052504;28;20382;-81
2021/01/28 15:32:27;;;;;;;4.15;1.38;;;;;;;;;;5055865;28;20025;-81
2021/01/28 15:34:52;;;;;;;3.97;1.30;;;;;;;;;;5048924;28;20017;-82
2021/01/28 15:37:18;;;;;;;2.83;1.38;;;;;;;;;;5046042;28;20495;-81
2021/01/28 15:39:44;;;;;;;3.85;2.30;;;;;;;;;;5056898;28;20029;-82
2021/01/28 15:42:10;;;;;;;4.80;2.30;;;;;;;;;;5055310;28;20116;-82
2021/01/28 15:44:35;;;;;;;4.25;2.53;;;;;;;;;;5059179;28;20048;-81
2021/01/28 15:47:01;;;;;;;8.65;4.43;;;;;;;;;;5050390;28;20035;-81
2021/01/28 15:49:27;;;;;;;16.48;6.07;;;;;;;;;;5057808;28;20025;-81
2021/01/28 15:54:12;;;;;;;7.40;4.03;;;;;;;;;;5111836;27;20182;-82
2021/01/28 15:56:37;;;;;;;8.48;4.45;;;;;;;;;;5115057;28;20059;-81
2021/01/28 15:59:03;;;;;;;9.55;4.80;;;;;;;;;;5122451;28;20062;-81
2021/01/28 16:01:29;;;;;;;3.95;1.70;;;;;;;;;;5127964;27;20049;-81
2021/01/28 16:03:54;;;;;;;9.93;5.13;;;;;;;;;;5106673;28;20431;-81
2021/01/28 16:06:21;;;;;;;7.57;3.85;;;;;;;;;;5102131;28;20526;-81
2021/01/28 16:08:46;;;;;;;10.20;7.97;;;;;;;;;;5098396;28;20389;-81
2021/01/28 16:11:12;;;;;;;13.90;8.57;;;;;;;;;;5098825;28;20077;-81
2021/01/28 16:13:38;;;;;;;11.70;7.68;;;;;;;;;;5103911;28;20051;-81
2021/01/28 16:16:03;;;;;;;23.40;16.23;;;;;;;;;;5108704;28;20406;-82
2021/01/28 16:18:29;;;;;;;19.85;12.10;;;;;;;;;;5102672;28;20679;-82
2021/01/28 16:20:55;;;;;;;27.88;17.42;;;;;;;;;;5104080;28;20028;-81
2021/01/28 16:23:20;;;;;;;17.73;11.50;;;;;;;;;;5103108;28;20383;-80
2021/01/28 16:25:46;;;;;;;27.00;16.63;;;;;;;;;;5120687;28;20107;-81
2021/01/28 16:28:12;;;;;;;42.95;28.98;;;;;;;;;;5106264;28;20038;-81
2021/01/28 16:30:37;;;;;;;16.65;12.00;;;;;;;;;;5114678;28;20038;-80
2021/01/28 16:33:03;;;;;;;11.85;8.05;;;;;;;;;;5106963;27;20031;-81
2021/01/28 16:35:29;;;;;;;9.70;6.05;;;;;;;;;;5111665;28;20020;-80
2021/01/28 16:37:56;;;;;;;5.20;3.20;;;;;;;;;;5106612;28;20545;-81
2021/01/28 16:40:23;;;;;;;6.13;3.25;;;;;;;;;;5094454;28;20085;-81
2021/01/28 16:42:49;;;;;;;3.15;1.80;;;;;;;;;;5095338;28;20031;-81
2021/01/28 16:45:17;;;;;;;10.63;6.20;;;;;;;;;;5096563;28;20688;-82
2021/01/28 16:47:43;;;;;;;4.72;3.13;;;;;;;;;;5114745;28;20055;-81
2021/01/28 16:50:09;;;;;;;3.80;2.40;;;;;;;;;;5120459;28;20027;-81
2021/01/28 16:52:35;;;;;;;7.85;4.30;;;;;;;;;;5112195;27;20053;-82
2021/01/28 16:55:01;;;;;;;3.83;2.10;;;;;;;;;;5111282;28;20379;-81
2021/01/28 16:57:27;;;;;;;7.70;4.95;;;;;;;;;;5102340;28;20085;-81
2021/01/28 16:59:53;;;;;;;3.55;1.98;;;;;;;;;;5105911;28;20483;-82
2021/01/28 17:02:21;;;;;;;3.67;1.75;;;;;;;;;;5099877;28;20134;-81
2021/01/28 17:04:54;;;;;;;3.00;1.55;;;;;;;;;;5096066;28;20066;-82
2021/01/28 17:07:20;;;;;;;3.63;1.60;;;;;;;;;;5080657;28;20060;-81
2021/01/28 17:09:46;;;;;;;3.17;1.88;;;;;;;;;;5086000;28;20412;-81
2021/01/28 17:12:11;;;;;;;3.03;1.50;;;;;;;;;;5081622;28;19916;-82
2021/01/28 17:14:37;;;;;;;7.00;3.30;;;;;;;;;;5084997;28;20064;-82
2021/01/28 17:17:03;;;;;;;4.35;2.72;;;;;;;;;;5082015;28;20495;-81
2021/01/28 17:19:29;;;;;;;7.78;3.22;;;;;;;;;;5093963;28;20335;-81
2021/01/28 17:21:55;;;;;;;5.88;2.53;;;;;;;;;;5088109;28;20031;-81
2021/01/28 17:24:20;;;;;;;12.65;5.18;;;;;;;;;;5090763;28;20023;-81
2021/01/28 17:26:49;;;;;;;16.58;5.45;;;;;;;;;;5080199;28;20035;-81
2021/01/28 17:29:15;;;;;;;4.65;3.08;;;;;;;;;;5088147;28;20039;-81
2021/01/28 17:31:41;;;;;;;4.78;2.25;;;;;;;;;;5084602;28;20028;-81
2021/01/28 17:34:06;;;;;;;3.88;2.00;;;;;;;;;;5086290;28;20024;-81
2021/01/28 17:36:32;;;;;;;4.78;1.88;;;;;;;;;;5082243;28;20111;-82
2021/01/28 17:38:58;;;;;;;5.65;2.30;;;;;;;;;;5083080;28;20059;-81
2021/01/28 17:41:23;;;;;;;5.68;2.80;;;;;;;;;;5078286;28;20103;-82
2021/01/28 17:43:49;;;;;;;5.45;3.00;;;;;;;;;;5086723;28;20028;-81
2021/01/28 17:46:15;;;;;;;6.93;3.47;;;;;;;;;;5083190;28;20060;-81
2021/01/28 17:48:41;;;;;;;4.78;2.80;;;;;;;;;;5081042;28;20400;-82
2021/01/28 17:51:07;;;;;;;4.28;1.95;;;;;;;;;;5085413;28;20114;-82
2021/01/28 17:53:32;;;;;;;4.05;2.47;;;;;;;;;;5089184;28;20059;-82
2021/01/28 17:55:59;;;;;;;5.18;2.22;;;;;;;;;;5087456;28;20388;-81
2021/01/28 17:58:25;;;;;;;5.65;2.22;;;;;;;;;;5089850;28;20062;-81
2021/01/28 18:00:51;;;;;;;6.63;2.70;;;;;;;;;;5122533;23;20384;-82
2021/01/28 18:03:16;;;;;;;7.85;3.85;;;;;;;;;;5068735;28;20905;-82
2021/01/28 18:05:42;;;;;;;14.95;7.70;;;;;;;;;;5073063;28;20651;-82
2021/01/28 18:08:08;;;;;;;17.85;8.32;;;;;;;;;;5075150;28;20034;-82
2021/01/28 18:10:33;;;;;;;4.78;2.45;;;;;;;;;;5075711;28;20050;-82
2021/01/28 18:12:59;;;;;;;4.57;2.30;;;;;;;;;;5086153;28;20035;-82
2021/01/28 18:15:25;;;;;;;3.38;1.67;;;;;;;;;;5092674;28;20110;-82
2021/01/28 18:17:51;;;;;;;4.45;1.30;;;;;;;;;;5089839;28;20024;-81
2021/01/28 18:20:18;;;;;;;4.20;1.92;;;;;;;;;;5090303;28;20024;-81
2021/01/28 18:22:44;;;;;;;2.80;1.30;;;;;;;;;;5095878;28;20242;-81
2021/01/28 18:25:11;;;;;;;4.80;1.40;;;;;;;;;;5090376;28;20293;-81
2021/01/28 18:27:37;;;;;;;3.95;1.60;;;;;;;;;;5088902;28;20052;-81
2021/01/28 18:30:03;;;;;;;6.47;4.22;;;;;;;;;;5089249;28;20039;-80
2021/01/28 18:32:29;;;;;;;4.10;2.53;;;;;;;;;;5083695;28;20077;-82
2021/01/28 18:34:54;;;;;;;4.82;2.70;;;;;;;;;;5092372;28;20017;-81
2021/01/28 18:37:20;;;;;;;8.88;5.30;;;;;;;;;;5084903;28;20096;-80
2021/01/28 18:39:46;;;;;;;6.75;4.13;;;;;;;;;;5091702;28;20040;-82
2021/01/28 19:04:36;;;;;;;9.13;4.20;;;;;;;;;;6264481;22;1278599;-89
2021/01/28 19:07:02;;;;;;;19.08;9.90;;;;;;;;;;6278811;22;20011;-88
2021/01/28 19:09:37;;;;;;;9.15;4.82;;;;;;;;;;6285065;22;20003;-89
2021/01/28 19:12:03;;;;;;;17.20;7.40;;;;;;;;;;6287552;22;20068;-89
2021/01/28 19:14:29;;;;;;;42.95;19.95;;;;;;;;;;6288191;22;20033;-89
2021/01/28 19:16:55;;;;;;;39.20;18.45;;;;;;;;;;6286606;22;20006;-90
2021/01/28 19:19:21;;;;;;;23.67;11.73;;;;;;;;;;6284416;22;20017;-89
2021/01/28 19:21:47;;;;;;;9.73;5.32;;;;;;;;;;6286085;22;20015;-88
2021/01/28 19:52:27;;;;;;;6.00;3.08;;;;;;;;;;6176093;23;20071;-82
2021/01/28 20:01:14;;;;;;;10.10;6.05;;;;;;;;;;6070046;23;20110;-82
2021/01/28 20:06:09;;;;;;;5.72;2.47;;;;;;;;;;5063435;27;20353;-82
2021/01/28 20:08:35;;;;;;;6.85;3.10;;;;;;;;;;5120031;27;20037;-82
2021/01/28 20:11:00;;;;;;;4.07;2.25;;;;;;;;;;5040430;27;20057;-82
2021/01/28 20:13:26;;;;;;;3.75;1.83;;;;;;;;;;5043134;27;20027;-82
2021/01/28 20:15:53;;;;;;;3.03;1.75;;;;;;;;;;5038240;28;20033;-82
2021/01/28 20:18:20;;;;;;;3.25;1.83;;;;;;;;;;5041733;28;20025;-82
2021/01/28 20:20:45;;;;;;;3.78;1.45;;;;;;;;;;5037691;28;20064;-82
2021/01/28 20:23:12;;;;;;;3.75;2.03;;;;;;;;;;5042630;28;20223;-83
2021/01/28 20:25:38;;;;;;;4.00;1.50;;;;;;;;;;5043328;28;20544;-83
2021/01/28 20:28:04;;;;;;;4.47;1.75;;;;;;;;;;5044794;28;20033;-83
2021/01/28 20:30:29;;;;;;;3.28;1.42;;;;;;;;;;5044014;28;20028;-83
2021/01/28 20:32:55;;;;;;;2.70;1.27;;;;;;;;;;5050248;28;20021;-83
2021/01/28 20:35:23;;;;;;;4.45;1.52;;;;;;;;;;5041403;28;20034;-83
2021/01/28 20:37:48;;;;;;;4.75;1.92;;;;;;;;;;5046427;28;20022;-83
2021/01/28 20:40:16;;;;;;;4.63;2.05;;;;;;;;;;5046959;28;20089;-83
2021/01/28 20:42:42;;;;;;;6.75;1.92;;;;;;;;;;5044257;28;20131;-83
2021/01/28 20:45:09;;;;;;;2.78;1.27;;;;;;;;;;5041323;28;20025;-83
2021/01/28 20:47:35;;;;;;;4.55;2.17;;;;;;;;;;5049261;28;20029;-82
2021/01/28 20:50:01;;;;;;;4.07;1.80;;;;;;;;;;5044759;28;20029;-81
2021/01/28 20:52:26;;;;;;;5.50;2.75;;;;;;;;;;5074432;27;20041;-82
2021/01/28 20:54:52;;;;;;;5.22;2.45;;;;;;;;;;5040679;28;20500;-83
2021/01/28 20:57:18;;;;;;;4.82;2.22;;;;;;;;;;5043289;28;20112;-82
2021/01/28 20:59:44;;;;;;;5.28;2.00;;;;;;;;;;5065260;27;20033;-82
2021/01/28 21:02:09;;;;;;;3.33;1.52;;;;;;;;;;5045097;27;20030;-82
2021/01/28 21:04:35;;;;;;;4.15;2.20;;;;;;;;;;5040624;28;20037;-83
2021/01/28 21:07:01;;;;;;;5.07;2.20;;;;;;;;;;5056704;27;20529;-83
2021/01/28 21:09:27;;;;;;;7.90;2.40;;;;;;;;;;5060205;28;20032;-83
2021/01/28 21:11:53;;;;;;;19.88;8.23;;;;;;;;;;5058966;27;20034;-82
2021/01/28 21:14:19;;;;;;;16.48;8.43;;;;;;;;;;5057644;27;20033;-83
2021/01/28 21:16:44;;;;;;;11.98;6.60;;;;;;;;;;5047652;27;20030;-83
2021/01/28 21:19:10;;;;;;;21.58;6.10;;;;;;;;;;5039934;28;20029;-83
2021/01/28 21:21:36;;;;;;;9.95;4.15;;;;;;;;;;5047149;27;20052;-83
2021/01/28 21:24:02;;;;;;;7.82;2.65;;;;;;;;;;5054570;27;20075;-83
2021/01/28 21:28:48;;;;;;;6.13;1.83;;;;;;;;;;5101525;27;20409;-84
2021/01/28 21:31:14;;;;;;;4.35;2.33;;;;;;;;;;5100295;28;20043;-84
2021/01/28 21:33:43;;;;;;;5.55;1.85;;;;;;;;;;5094766;28;20045;-84
2021/01/28 21:36:10;;;;;;;3.30;1.50;;;;;;;;;;5088616;28;20119;-84
2021/01/28 21:38:36;;;;;;;3.47;1.40;;;;;;;;;;5090653;28;20032;-84
2021/01/28 21:41:01;;;;;;;6.28;2.20;;;;;;;;;;5085691;28;20024;-84
2021/01/28 21:43:27;;;;;;;4.65;1.65;;;;;;;;;;5088274;28;20046;-84